sensor_id;sensor_type;location;lat;lon;timestamp;pressure;altitude;pressure_sealevel;temperature;humidity
48892;BME280;50130;52.150;5.236;2022-07-09T00:00:05;102697.0;;;17.07;88.95
48892;BME280;50130;52.150;5.236;2022-07-09T00:01:51;102695.0;;;17.06;88.76
48892;BME280;50130;52.150;5.236;2022-07-09T00:03:39;102694.0;;;17.05;88.99
48892;BME280;50130;52.150;5.236;2022-07-09T00:05:26;102692.0;;;17.02;88.91
48892;BME280;50130;52.150;5.236;2022-07-09T00:07:12;102689.00000000001;;;17.0;88.57
48892;BME280;50130;52.150;5.236;2022-07-09T00:08:59;102689.00000000001;;;17.07;88.5
48892;BME280;50130;52.150;5.236;2022-07-09T00:12:32;102686.99999999999;;;16.96;88.45
48892;BME280;50130;52.150;5.236;2022-07-09T00:14:20;102679.0;;;16.84;89.03
48892;BME280;50130;52.150;5.236;2022-07-09T00:16:06;102676.0;;;16.75;89.09
48892;BME280;50130;52.150;5.236;2022-07-09T00:17:53;102676.0;;;16.77;89.1
48892;BME280;50130;52.150;5.236;2022-07-09T00:19:39;102670.0;;;16.61;89.49
48892;BME280;50130;52.150;5.236;2022-07-09T00:23:12;102670.0;;;16.56;89.66
48892;BME280;50130;52.150;5.236;2022-07-09T00:24:59;102673.0;;;16.56;89.45
48892;BME280;50130;52.150;5.236;2022-07-09T00:26:46;102674.0;;;16.59;89.08
48892;BME280;50130;52.150;5.236;2022-07-09T00:28:32;102668.0;;;16.48;89.37
48892;BME280;50130;52.150;5.236;2022-07-09T00:30:18;102671.0;;;16.43;89.71
48892;BME280;50130;52.150;5.236;2022-07-09T00:32:05;102667.0;;;16.45;89.47
48892;BME280;50130;52.150;5.236;2022-07-09T00:35:38;102667.0;;;16.36;89.44
48892;BME280;50130;52.150;5.236;2022-07-09T00:37:24;102668.0;;;16.43;89.11
48892;BME280;50130;52.150;5.236;2022-07-09T00:39:10;102667.0;;;16.37;89.08
48892;BME280;50130;52.150;5.236;2022-07-09T00:40:56;102664.00000000001;;;16.29;89.45
48892;BME280;50130;52.150;5.236;2022-07-09T00:42:42;102664.00000000001;;;16.25;89.5
48892;BME280;50130;52.150;5.236;2022-07-09T00:44:28;102659.99999999999;;;16.21;89.44
48892;BME280;50130;52.150;5.236;2022-07-09T00:48:02;102658.99999999999;;;16.2;89.79
48892;BME280;50130;52.150;5.236;2022-07-09T00:49:49;102653.0;;;16.13;89.95
48892;BME280;50130;52.150;5.236;2022-07-09T00:51:36;102651.0;;;16.18;89.76
48892;BME280;50130;52.150;5.236;2022-07-09T00:53:25;102653.0;;;16.04;89.48
48892;BME280;50130;52.150;5.236;2022-07-09T00:55:11;102663.00000000001;;;15.89;89.84
48892;BME280;50130;52.150;5.236;2022-07-09T00:58:45;102670.0;;;15.8;90.1
48892;BME280;50130;52.150;5.236;2022-07-09T01:00:33;102667.0;;;15.8;89.85
48892;BME280;50130;52.150;5.236;2022-07-09T01:02:22;102661.99999999999;;;15.88;89.31
48892;BME280;50130;52.150;5.236;2022-07-09T01:04:08;102656.0;;;15.83;88.99
48892;BME280;50130;52.150;5.236;2022-07-09T01:05:56;102654.0;;;15.87;89.1
48892;BME280;50130;52.150;5.236;2022-07-09T01:07:42;102652.0;;;15.84;89.32
48892;BME280;50130;52.150;5.236;2022-07-09T01:11:16;102654.0;;;15.85;89.55
48892;BME280;50130;52.150;5.236;2022-07-09T01:13:04;102651.0;;;15.85;89.6
48892;BME280;50130;52.150;5.236;2022-07-09T01:14:51;102646.0;;;15.87;89.36
48892;BME280;50130;52.150;5.236;2022-07-09T01:16:39;102644.0;;;15.95;88.97
48892;BME280;50130;52.150;5.236;2022-07-09T01:18:25;102642.0;;;15.91;89.18
48892;BME280;50130;52.150;5.236;2022-07-09T01:20:12;102650.0;;;15.9;89.39
48892;BME280;50130;52.150;5.236;2022-07-09T01:23:46;102651.0;;;15.95;89.18
48892;BME280;50130;52.150;5.236;2022-07-09T01:25:35;102650.0;;;15.99;89.16
48892;BME280;50130;52.150;5.236;2022-07-09T01:27:22;102645.0;;;16.02;88.99
48892;BME280;50130;52.150;5.236;2022-07-09T01:29:09;102643.0;;;16.0;89.05
48892;BME280;50130;52.150;5.236;2022-07-09T01:30:55;102644.0;;;16.03;88.64
48892;BME280;50130;52.150;5.236;2022-07-09T01:32:42;102641.00000000001;;;15.99;89.18
48892;BME280;50130;52.150;5.236;2022-07-09T01:36:14;102647.0;;;16.02;89.05
48892;BME280;50130;52.150;5.236;2022-07-09T01:38:02;102642.0;;;15.98;89.17
48892;BME280;50130;52.150;5.236;2022-07-09T01:39:52;102640.00000000001;;;15.93;89.35
48892;BME280;50130;52.150;5.236;2022-07-09T01:41:38;102639.00000000001;;;15.97;89.14
48892;BME280;50130;52.150;5.236;2022-07-09T01:43:24;102633.99999999999;;;15.98;88.83
48892;BME280;50130;52.150;5.236;2022-07-09T01:45:11;102632.0;;;15.98;88.87
48892;BME280;50130;52.150;5.236;2022-07-09T01:48:44;102623.0;;;15.95;89.43
48892;BME280;50130;52.150;5.236;2022-07-09T01:50:30;102626.0;;;16.0;89.27
48892;BME280;50130;52.150;5.236;2022-07-09T01:52:17;102622.0;;;15.89;89.7
48892;BME280;50130;52.150;5.236;2022-07-09T01:54:04;102623.0;;;15.85;89.9
48892;BME280;50130;52.150;5.236;2022-07-09T01:55:50;102617.0;;;15.87;89.87
48892;BME280;50130;52.150;5.236;2022-07-09T01:59:22;102615.00000000001;;;15.73;90.17
48892;BME280;50130;52.150;5.236;2022-07-09T02:01:08;102609.99999999999;;;15.71;90.17
48892;BME280;50130;52.150;5.236;2022-07-09T02:02:55;102609.99999999999;;;15.87;89.48
48892;BME280;50130;52.150;5.236;2022-07-09T02:04:42;102616.00000000001;;;15.84;89.05
48892;BME280;50130;52.150;5.236;2022-07-09T02:06:28;102615.00000000001;;;15.68;89.7
48892;BME280;50130;52.150;5.236;2022-07-09T02:08:15;102609.99999999999;;;15.62;90.11
48892;BME280;50130;52.150;5.236;2022-07-09T02:11:49;102608.99999999999;;;15.56;90.01
48892;BME280;50130;52.150;5.236;2022-07-09T02:13:37;102608.99999999999;;;15.42;90.48
48892;BME280;50130;52.150;5.236;2022-07-09T02:15:23;102608.0;;;15.44;90.52
48892;BME280;50130;52.150;5.236;2022-07-09T02:17:10;102602.0;;;15.54;89.73
48892;BME280;50130;52.150;5.236;2022-07-09T02:18:57;102606.0;;;15.44;89.67
48892;BME280;50130;52.150;5.236;2022-07-09T02:20:43;102604.0;;;15.38;90.18
48892;BME280;50130;52.150;5.236;2022-07-09T02:24:16;102601.0;;;15.42;89.93
48892;BME280;50130;52.150;5.236;2022-07-09T02:26:04;102603.0;;;15.32;90.23
48892;BME280;50130;52.150;5.236;2022-07-09T02:27:50;102606.0;;;15.28;90.54
48892;BME280;50130;52.150;5.236;2022-07-09T02:29:37;102603.0;;;15.41;90.67
48892;BME280;50130;52.150;5.236;2022-07-09T02:31:23;102598.0;;;15.51;90.23
48892;BME280;50130;52.150;5.236;2022-07-09T02:34:56;102601.0;;;15.42;91.02
48892;BME280;50130;52.150;5.236;2022-07-09T02:36:42;102601.0;;;15.5;91.02
48892;BME280;50130;52.150;5.236;2022-07-09T02:38:29;102597.0;;;15.56;91.02
48892;BME280;50130;52.150;5.236;2022-07-09T02:40:16;102599.0;;;15.63;90.82
48892;BME280;50130;52.150;5.236;2022-07-09T02:42:02;102603.0;;;15.68;90.8
48892;BME280;50130;52.150;5.236;2022-07-09T02:43:49;102602.0;;;15.74;90.68
48892;BME280;50130;52.150;5.236;2022-07-09T02:47:21;102593.0;;;15.78;90.87
48892;BME280;50130;52.150;5.236;2022-07-09T02:49:10;102594.0;;;15.85;90.83
48892;BME280;50130;52.150;5.236;2022-07-09T02:50:57;102595.0;;;15.89;91.05
48892;BME280;50130;52.150;5.236;2022-07-09T02:52:43;102599.0;;;15.93;91.16
48892;BME280;50130;52.150;5.236;2022-07-09T02:54:30;102603.0;;;15.99;91.56
48892;BME280;50130;52.150;5.236;2022-07-09T02:56:16;102601.0;;;16.09;91.43
48892;BME280;50130;52.150;5.236;2022-07-09T02:59:48;102594.0;;;16.07;91.77
48892;BME280;50130;52.150;5.236;2022-07-09T03:01:34;102594.0;;;16.12;91.57
48892;BME280;50130;52.150;5.236;2022-07-09T03:03:23;102595.0;;;16.09;91.5
48892;BME280;50130;52.150;5.236;2022-07-09T03:05:10;102597.0;;;16.11;91.65
48892;BME280;50130;52.150;5.236;2022-07-09T03:06:56;102592.0;;;16.14;92.01
48892;BME280;50130;52.150;5.236;2022-07-09T03:10:28;102594.0;;;16.2;91.97
48892;BME280;50130;52.150;5.236;2022-07-09T03:12:16;102590.00000000001;;;16.28;91.99
48892;BME280;50130;52.150;5.236;2022-07-09T03:14:02;102594.0;;;16.34;92.12
48892;BME280;50130;52.150;5.236;2022-07-09T03:15:49;102592.0;;;16.41;91.95
48892;BME280;50130;52.150;5.236;2022-07-09T03:17:36;102597.0;;;16.45;92.0
48892;BME280;50130;52.150;5.236;2022-07-09T03:19:22;102596.0;;;16.46;92.17
48892;BME280;50130;52.150;5.236;2022-07-09T03:22:55;102599.0;;;16.5;92.0
48892;BME280;50130;52.150;5.236;2022-07-09T03:24:41;102604.0;;;16.52;92.1
48892;BME280;50130;52.150;5.236;2022-07-09T03:26:28;102599.0;;;16.53;92.42
48892;BME280;50130;52.150;5.236;2022-07-09T03:28:15;102599.0;;;16.59;92.19
48892;BME280;50130;52.150;5.236;2022-07-09T03:30:03;102599.0;;;16.55;92.2
48892;BME280;50130;52.150;5.236;2022-07-09T03:31:51;102600.0;;;16.57;92.26
48892;BME280;50130;52.150;5.236;2022-07-09T03:35:23;102592.0;;;16.54;92.28
48892;BME280;50130;52.150;5.236;2022-07-09T03:37:10;102595.0;;;16.56;92.31
48892;BME280;50130;52.150;5.236;2022-07-09T03:38:57;102594.0;;;16.52;92.86
48892;BME280;50130;52.150;5.236;2022-07-09T03:40:44;102594.0;;;16.55;92.59
48892;BME280;50130;52.150;5.236;2022-07-09T03:42:30;102591.00000000001;;;16.55;92.61
48892;BME280;50130;52.150;5.236;2022-07-09T03:46:04;102595.0;;;16.59;93.13
48892;BME280;50130;52.150;5.236;2022-07-09T03:47:51;102598.0;;;16.62;92.78
48892;BME280;50130;52.150;5.236;2022-07-09T03:49:38;102594.0;;;16.7;92.31
48892;BME280;50130;52.150;5.236;2022-07-09T03:51:24;102598.0;;;16.7;92.22
48892;BME280;50130;52.150;5.236;2022-07-09T03:53:10;102601.0;;;16.84;91.65
48892;BME280;50130;52.150;5.236;2022-07-09T03:54:57;102597.0;;;16.77;91.06
48892;BME280;50130;52.150;5.236;2022-07-09T03:58:30;102592.0;;;16.86;90.89
48892;BME280;50130;52.150;5.236;2022-07-09T04:00:18;102584.99999999999;;;16.79;91.27
48892;BME280;50130;52.150;5.236;2022-07-09T04:02:05;102591.00000000001;;;16.78;92.12
48892;BME280;50130;52.150;5.236;2022-07-09T04:03:52;102593.0;;;16.8;92.25
48892;BME280;50130;52.150;5.236;2022-07-09T04:05:39;102591.00000000001;;;16.8;92.5
48892;BME280;50130;52.150;5.236;2022-07-09T04:07:26;102590.00000000001;;;16.89;92.2
48892;BME280;50130;52.150;5.236;2022-07-09T04:11:00;102591.00000000001;;;16.89;92.83
48892;BME280;50130;52.150;5.236;2022-07-09T04:12:46;102582.0;;;16.91;92.69
48892;BME280;50130;52.150;5.236;2022-07-09T04:14:34;102576.0;;;16.9;92.93
48892;BME280;50130;52.150;5.236;2022-07-09T04:16:21;102574.0;;;16.96;92.83
48892;BME280;50130;52.150;5.236;2022-07-09T04:18:07;102570.0;;;16.95;93.45
48892;BME280;50130;52.150;5.236;2022-07-09T04:21:40;102572.0;;;16.97;93.55
48892;BME280;50130;52.150;5.236;2022-07-09T04:23:26;102573.0;;;17.02;93.87
48892;BME280;50130;52.150;5.236;2022-07-09T04:25:13;102576.0;;;17.06;94.15
48892;BME280;50130;52.150;5.236;2022-07-09T04:27:00;102573.0;;;17.11;93.8
48892;BME280;50130;52.150;5.236;2022-07-09T04:28:46;102571.0;;;17.2;93.34
48892;BME280;50130;52.150;5.236;2022-07-09T04:30:33;102573.0;;;17.28;92.72
48892;BME280;50130;52.150;5.236;2022-07-09T04:34:06;102567.0;;;17.27;92.11
48892;BME280;50130;52.150;5.236;2022-07-09T04:35:53;102561.99999999999;;;17.22;92.63
48892;BME280;50130;52.150;5.236;2022-07-09T04:37:41;102567.0;;;17.25;93.53
48892;BME280;50130;52.150;5.236;2022-07-09T04:39:28;102567.0;;;17.32;94.45
48892;BME280;50130;52.150;5.236;2022-07-09T04:41:14;102576.0;;;17.31;93.84
48892;BME280;50130;52.150;5.236;2022-07-09T04:43:01;102573.0;;;17.36;92.79
48892;BME280;50130;52.150;5.236;2022-07-09T04:46:34;102572.0;;;17.45;92.97
48892;BME280;50130;52.150;5.236;2022-07-09T04:48:20;102567.0;;;17.43;92.34
48892;BME280;50130;52.150;5.236;2022-07-09T04:50:09;102564.00000000001;;;17.41;93.04
48892;BME280;50130;52.150;5.236;2022-07-09T04:51:56;102558.99999999999;;;17.5;93.32
48892;BME280;50130;52.150;5.236;2022-07-09T04:53:42;102559.99999999999;;;17.59;94.58
48892;BME280;50130;52.150;5.236;2022-07-09T04:55:29;102553.0;;;17.62;94.88
48892;BME280;50130;52.150;5.236;2022-07-09T04:59:03;102553.0;;;17.64;95.26
48892;BME280;50130;52.150;5.236;2022-07-09T05:00:49;102554.0;;;17.73;95.64
48892;BME280;50130;52.150;5.236;2022-07-09T05:02:36;102554.0;;;17.75;95.31
48892;BME280;50130;52.150;5.236;2022-07-09T05:04:23;102546.0;;;17.75;95.55
48892;BME280;50130;52.150;5.236;2022-07-09T05:06:09;102544.0;;;17.82;96.77
48892;BME280;50130;52.150;5.236;2022-07-09T05:09:41;102543.0;;;18.0;96.09
48892;BME280;50130;52.150;5.236;2022-07-09T05:11:28;102542.0;;;18.06;95.35
48892;BME280;50130;52.150;5.236;2022-07-09T05:13:14;102538.00000000001;;;18.06;95.55
48892;BME280;50130;52.150;5.236;2022-07-09T05:15:01;102543.0;;;18.14;95.98
48892;BME280;50130;52.150;5.236;2022-07-09T05:16:49;102539.00000000001;;;18.29;95.14
48892;BME280;50130;52.150;5.236;2022-07-09T05:18:35;102544.0;;;18.36;94.95
48892;BME280;50130;52.150;5.236;2022-07-09T05:22:08;102545.0;;;18.45;94.83
48892;BME280;50130;52.150;5.236;2022-07-09T05:23:54;102545.0;;;18.5;94.59
48892;BME280;50130;52.150;5.236;2022-07-09T05:25:40;102542.0;;;18.46;94.75
48892;BME280;50130;52.150;5.236;2022-07-09T05:27:28;102543.0;;;18.46;94.78
48892;BME280;50130;52.150;5.236;2022-07-09T05:29:14;102540.00000000001;;;18.45;94.92
48892;BME280;50130;52.150;5.236;2022-07-09T05:32:47;102534.99999999999;;;18.53;95.23
48892;BME280;50130;52.150;5.236;2022-07-09T05:34:33;102531.0;;;18.66;94.69
48892;BME280;50130;52.150;5.236;2022-07-09T05:36:19;102533.99999999999;;;18.66;93.76
48892;BME280;50130;52.150;5.236;2022-07-09T05:38:07;102541.00000000001;;;18.64;93.85
48892;BME280;50130;52.150;5.236;2022-07-09T05:39:56;102541.00000000001;;;18.77;94.47
48892;BME280;50130;52.150;5.236;2022-07-09T05:41:43;102539.00000000001;;;18.91;94.24
48892;BME280;50130;52.150;5.236;2022-07-09T05:45:17;102543.0;;;19.14;93.62
48892;BME280;50130;52.150;5.236;2022-07-09T05:47:04;102544.0;;;19.16;93.55
48892;BME280;50130;52.150;5.236;2022-07-09T05:48:51;102552.0;;;19.12;94.14
48892;BME280;50130;52.150;5.236;2022-07-09T05:50:37;102550.0;;;19.09;94.02
48892;BME280;50130;52.150;5.236;2022-07-09T05:52:24;102557.0;;;19.09;93.92
48892;BME280;50130;52.150;5.236;2022-07-09T05:54:10;102550.0;;;19.05;93.81
48892;BME280;50130;52.150;5.236;2022-07-09T05:57:43;102550.0;;;19.21;93.93
48892;BME280;50130;52.150;5.236;2022-07-09T05:59:29;102551.0;;;19.25;93.15
48892;BME280;50130;52.150;5.236;2022-07-09T06:01:16;102555.0;;;19.29;93.54
48892;BME280;50130;52.150;5.236;2022-07-09T06:03:03;102554.0;;;19.21;93.68
48892;BME280;50130;52.150;5.236;2022-07-09T06:04:50;102553.0;;;19.25;93.68
48892;BME280;50130;52.150;5.236;2022-07-09T06:06:36;102555.0;;;19.36;93.26
48892;BME280;50130;52.150;5.236;2022-07-09T06:10:11;102556.0;;;19.46;93.08
48892;BME280;50130;52.150;5.236;2022-07-09T06:11:58;102558.0;;;19.78;92.29
48892;BME280;50130;52.150;5.236;2022-07-09T06:13:44;102554.0;;;19.72;91.86
48892;BME280;50130;52.150;5.236;2022-07-09T06:15:30;102552.0;;;19.8;91.67
48892;BME280;50130;52.150;5.236;2022-07-09T06:17:17;102555.0;;;19.73;92.19
48892;BME280;50130;52.150;5.236;2022-07-09T06:20:50;102553.0;;;19.81;91.45
48892;BME280;50130;52.150;5.236;2022-07-09T06:24:24;102547.0;;;19.95;90.25
48892;BME280;50130;52.150;5.236;2022-07-09T06:26:10;102558.0;;;19.93;90.02
48892;BME280;50130;52.150;5.236;2022-07-09T06:27:57;102558.99999999999;;;20.04;89.65
48892;BME280;50130;52.150;5.236;2022-07-09T06:29:44;102564.00000000001;;;20.09;89.34
48892;BME280;50130;52.150;5.236;2022-07-09T06:33:17;102559.99999999999;;;20.03;89.66
48892;BME280;50130;52.150;5.236;2022-07-09T06:35:04;102558.99999999999;;;20.12;89.53
48892;BME280;50130;52.150;5.236;2022-07-09T06:36:50;102557.0;;;20.05;89.62
48892;BME280;50130;52.150;5.236;2022-07-09T06:39:44;102553.0;;;20.2;89.37
48892;BME280;50130;52.150;5.236;2022-07-09T06:41:32;102558.0;;;20.21;88.07
48892;BME280;50130;52.150;5.236;2022-07-09T06:43:19;102564.00000000001;;;20.38;87.09
48892;BME280;50130;52.150;5.236;2022-07-09T06:45:06;102566.00000000001;;;20.25;87.9
48892;BME280;50130;52.150;5.236;2022-07-09T06:46:53;102568.0;;;20.28;87.94
48892;BME280;50130;52.150;5.236;2022-07-09T06:48:39;102567.0;;;20.36;88.14
48892;BME280;50130;52.150;5.236;2022-07-09T06:52:13;102561.99999999999;;;20.34;87.75
48892;BME280;50130;52.150;5.236;2022-07-09T06:53:59;102561.99999999999;;;20.41;86.93
48892;BME280;50130;52.150;5.236;2022-07-09T06:55:46;102556.0;;;20.43;86.96
48892;BME280;50130;52.150;5.236;2022-07-09T06:57:33;102554.0;;;20.41;87.58
48892;BME280;50130;52.150;5.236;2022-07-09T06:59:19;102558.0;;;20.6;86.46
48892;BME280;50130;52.150;5.236;2022-07-09T07:01:06;102555.0;;;20.71;86.21
48892;BME280;50130;52.150;5.236;2022-07-09T07:04:39;102564.00000000001;;;20.78;85.5
48892;BME280;50130;52.150;5.236;2022-07-09T07:06:25;102564.00000000001;;;20.82;84.6
48892;BME280;50130;52.150;5.236;2022-07-09T07:08:12;102566.00000000001;;;20.96;84.52
48892;BME280;50130;52.150;5.236;2022-07-09T07:09:58;102569.0;;;21.0;83.26
48892;BME280;50130;52.150;5.236;2022-07-09T07:11:44;102566.00000000001;;;20.81;83.42
48892;BME280;50130;52.150;5.236;2022-07-09T07:15:17;102566.00000000001;;;20.96;83.74
48892;BME280;50130;52.150;5.236;2022-07-09T07:17:04;102572.0;;;21.04;84.22
48892;BME280;50130;52.150;5.236;2022-07-09T07:18:51;102578.0;;;21.05;83.45
48892;BME280;50130;52.150;5.236;2022-07-09T07:20:38;102578.0;;;21.25;83.04
48892;BME280;50130;52.150;5.236;2022-07-09T07:22:24;102576.0;;;21.25;83.53
48892;BME280;50130;52.150;5.236;2022-07-09T07:24:10;102575.0;;;21.37;82.79
48892;BME280;50130;52.150;5.236;2022-07-09T07:27:43;102574.0;;;21.45;82.44
48892;BME280;50130;52.150;5.236;2022-07-09T07:29:29;102575.0;;;21.4;82.08
48892;BME280;50130;52.150;5.236;2022-07-09T07:31:16;102578.0;;;21.38;82.14
48892;BME280;50130;52.150;5.236;2022-07-09T07:33:03;102577.0;;;21.49;81.72
48892;BME280;50130;52.150;5.236;2022-07-09T07:34:49;102575.0;;;21.39;82.67
48892;BME280;50130;52.150;5.236;2022-07-09T07:36:35;102577.0;;;21.55;81.83
48892;BME280;50130;52.150;5.236;2022-07-09T07:40:09;102576.0;;;21.4;81.25
48892;BME280;50130;52.150;5.236;2022-07-09T07:41:56;102573.0;;;21.19;82.37
48892;BME280;50130;52.150;5.236;2022-07-09T07:43:43;102572.0;;;21.37;81.09
48892;BME280;50130;52.150;5.236;2022-07-09T07:45:30;102569.0;;;21.27;81.97
48892;BME280;50130;52.150;5.236;2022-07-09T07:47:17;102571.0;;;21.27;82.54
48892;BME280;50130;52.150;5.236;2022-07-09T07:50:49;102572.0;;;21.33;82.58
48892;BME280;50130;52.150;5.236;2022-07-09T07:52:35;102567.0;;;21.39;82.6
48892;BME280;50130;52.150;5.236;2022-07-09T07:54:21;102563.00000000001;;;21.33;82.13
48892;BME280;50130;52.150;5.236;2022-07-09T07:56:08;102561.99999999999;;;21.42;82.18
48892;BME280;50130;52.150;5.236;2022-07-09T07:57:55;102567.0;;;21.5;81.62
48892;BME280;50130;52.150;5.236;2022-07-09T07:59:41;102563.00000000001;;;21.44;81.66
48892;BME280;50130;52.150;5.236;2022-07-09T08:03:13;102566.00000000001;;;21.66;81.45
48892;BME280;50130;52.150;5.236;2022-07-09T08:05:00;102567.0;;;21.48;81.58
48892;BME280;50130;52.150;5.236;2022-07-09T08:06:47;102570.0;;;21.45;80.24
48892;BME280;50130;52.150;5.236;2022-07-09T08:08:34;102578.0;;;21.43;79.97
48892;BME280;50130;52.150;5.236;2022-07-09T08:10:20;102573.0;;;21.54;79.25
48892;BME280;50130;52.150;5.236;2022-07-09T08:12:08;102575.0;;;21.6;78.69
48892;BME280;50130;52.150;5.236;2022-07-09T08:15:41;102569.0;;;21.67;77.09
48892;BME280;50130;52.150;5.236;2022-07-09T08:17:28;102570.0;;;21.6;76.11
48892;BME280;50130;52.150;5.236;2022-07-09T08:19:16;102572.0;;;21.66;73.98
48892;BME280;50130;52.150;5.236;2022-07-09T08:21:03;102571.0;;;21.52;73.59
48892;BME280;50130;52.150;5.236;2022-07-09T08:22:49;102572.0;;;21.56;72.81
48892;BME280;50130;52.150;5.236;2022-07-09T08:26:24;102570.0;;;21.5;73.5
48892;BME280;50130;52.150;5.236;2022-07-09T08:28:10;102578.0;;;21.75;73.83
48892;BME280;50130;52.150;5.236;2022-07-09T08:29:56;102579.0;;;21.71;73.66
48892;BME280;50130;52.150;5.236;2022-07-09T08:31:43;102584.99999999999;;;21.51;73.28
48892;BME280;50130;52.150;5.236;2022-07-09T08:33:30;102577.0;;;21.51;73.14
48892;BME280;50130;52.150;5.236;2022-07-09T08:35:16;102576.0;;;21.65;73.88
48892;BME280;50130;52.150;5.236;2022-07-09T08:38:50;102567.0;;;21.8;74.22
48892;BME280;50130;52.150;5.236;2022-07-09T08:40:37;102568.0;;;22.01;73.59
48892;BME280;50130;52.150;5.236;2022-07-09T08:42:23;102565.00000000001;;;22.04;73.75
48892;BME280;50130;52.150;5.236;2022-07-09T08:44:10;102567.0;;;22.14;73.0
48892;BME280;50130;52.150;5.236;2022-07-09T08:45:58;102570.0;;;22.24;72.42
48892;BME280;50130;52.150;5.236;2022-07-09T08:47:45;102566.00000000001;;;22.13;71.56
48892;BME280;50130;52.150;5.236;2022-07-09T08:51:22;102566.00000000001;;;22.06;73.03
48892;BME280;50130;52.150;5.236;2022-07-09T08:53:11;102561.99999999999;;;22.04;72.27
48892;BME280;50130;52.150;5.236;2022-07-09T08:54:58;102567.0;;;21.92;72.55
48892;BME280;50130;52.150;5.236;2022-07-09T08:56:45;102570.0;;;22.03;72.3
48892;BME280;50130;52.150;5.236;2022-07-09T08:58:31;102565.00000000001;;;22.12;72.03
48892;BME280;50130;52.150;5.236;2022-07-09T09:00:18;102561.99999999999;;;22.32;72.03
48892;BME280;50130;52.150;5.236;2022-07-09T09:03:52;102567.0;;;22.21;71.69
48892;BME280;50130;52.150;5.236;2022-07-09T09:05:40;102563.00000000001;;;22.19;72.19
48892;BME280;50130;52.150;5.236;2022-07-09T09:07:28;102566.00000000001;;;22.17;72.5
48892;BME280;50130;52.150;5.236;2022-07-09T09:09:18;102564.00000000001;;;22.16;72.66
48892;BME280;50130;52.150;5.236;2022-07-09T09:11:07;102564.00000000001;;;22.22;72.94
48892;BME280;50130;52.150;5.236;2022-07-09T09:12:55;102552.0;;;22.32;72.78
48892;BME280;50130;52.150;5.236;2022-07-09T09:16:41;102550.0;;;22.29;72.83
48892;BME280;50130;52.150;5.236;2022-07-09T09:18:29;102551.0;;;22.3;71.41
48892;BME280;50130;52.150;5.236;2022-07-09T09:20:16;102556.0;;;22.4;71.36
48892;BME280;50130;52.150;5.236;2022-07-09T09:22:04;102561.99999999999;;;22.52;71.77
48892;BME280;50130;52.150;5.236;2022-07-09T09:23:53;102555.0;;;22.73;70.19
48892;BME280;50130;52.150;5.236;2022-07-09T09:25:41;102554.0;;;22.71;69.83
48892;BME280;50130;52.150;5.236;2022-07-09T09:27:29;102551.0;;;22.78;69.49
48892;BME280;50130;52.150;5.236;2022-07-09T09:31:03;102554.0;;;22.76;70.36
48892;BME280;50130;52.150;5.236;2022-07-09T09:33:03;102552.0;;;22.79;66.38
48892;BME280;50130;52.150;5.236;2022-07-09T09:34:51;102558.0;;;22.78;66.45
48892;BME280;50130;52.150;5.236;2022-07-09T09:36:40;102563.00000000001;;;22.81;67.59
48892;BME280;50130;52.150;5.236;2022-07-09T09:38:29;102565.00000000001;;;22.74;67.5
48892;BME280;50130;52.150;5.236;2022-07-09T09:40:17;102567.0;;;22.81;65.85
48892;BME280;50130;52.150;5.236;2022-07-09T09:43:52;102558.99999999999;;;22.86;66.16
48892;BME280;50130;52.150;5.236;2022-07-09T09:45:43;102565.00000000001;;;22.93;65.33
48892;BME280;50130;52.150;5.236;2022-07-09T09:47:32;102565.00000000001;;;22.75;65.41
48892;BME280;50130;52.150;5.236;2022-07-09T09:49:19;102564.00000000001;;;22.78;66.47
48892;BME280;50130;52.150;5.236;2022-07-09T09:51:05;102571.0;;;22.9;66.58
48892;BME280;50130;52.150;5.236;2022-07-09T09:52:53;102565.00000000001;;;22.94;65.77
48892;BME280;50130;52.150;5.236;2022-07-09T09:54:44;102563.00000000001;;;22.95;66.2
48892;BME280;50130;52.150;5.236;2022-07-09T09:58:17;102572.0;;;22.86;65.33
48892;BME280;50130;52.150;5.236;2022-07-09T10:00:05;102578.0;;;22.63;66.38
48892;BME280;50130;52.150;5.236;2022-07-09T10:01:52;102588.00000000001;;;22.72;67.25
48892;BME280;50130;52.150;5.236;2022-07-09T10:03:39;102588.00000000001;;;22.51;66.81
48892;BME280;50130;52.150;5.236;2022-07-09T10:05:26;102588.00000000001;;;22.46;65.66
48892;BME280;50130;52.150;5.236;2022-07-09T10:07:13;102583.99999999999;;;22.48;65.41
48892;BME280;50130;52.150;5.236;2022-07-09T10:10:50;102582.0;;;22.28;66.64
48892;BME280;50130;52.150;5.236;2022-07-09T10:12:37;102591.00000000001;;;22.23;66.27
48892;BME280;50130;52.150;5.236;2022-07-09T10:14:32;102591.00000000001;;;22.18;67.27
48892;BME280;50130;52.150;5.236;2022-07-09T10:16:39;102592.0;;;22.19;67.02
48892;BME280;50130;52.150;5.236;2022-07-09T10:18:26;102590.00000000001;;;22.14;66.72
48892;BME280;50130;52.150;5.236;2022-07-09T10:20:13;102591.00000000001;;;22.1;67.97
48892;BME280;50130;52.150;5.236;2022-07-09T10:22:00;102592.0;;;22.06;67.09
48892;BME280;50130;52.150;5.236;2022-07-09T10:25:43;102593.0;;;22.15;66.87
48892;BME280;50130;52.150;5.236;2022-07-09T10:27:42;102598.0;;;22.05;67.58
48892;BME280;50130;52.150;5.236;2022-07-09T10:29:30;102598.0;;;21.96;67.95
48892;BME280;50130;52.150;5.236;2022-07-09T10:31:19;102599.0;;;22.08;68.53
48892;BME280;50130;52.150;5.236;2022-07-09T10:33:07;102598.0;;;21.95;68.83
48892;BME280;50130;52.150;5.236;2022-07-09T10:34:58;102596.0;;;22.12;69.66
48892;BME280;50130;52.150;5.236;2022-07-09T10:36:56;102601.0;;;22.28;67.87
48892;BME280;50130;52.150;5.236;2022-07-09T10:38:53;102600.0;;;22.31;65.91
48892;BME280;50130;52.150;5.236;2022-07-09T10:40:42;102602.0;;;22.3;64.37
48892;BME280;50130;52.150;5.236;2022-07-09T10:44:26;102602.0;;;22.38;64.88